Weather at Torino-Aeritalia Airport

Public forecast

Using degrees Celsius for public forecast. Weather courtesy of forecast.io.

Current aviation weather report (METAR) for Torino-Aeritalia Airport

Report is more than 2 hours old.

Retrieved 2021/04/17 16:50 UTC (3 hours ago):

LIMA 171650Z 19006KT CAVOK 13/M02 Q1013

Closest aviation forecast (TAF) to Torino-Aeritalia Airport

Closest forecast is Turin Airport, 7.1 nm (13.2 km) NNE. Retrieved 2021/04/17 18:25 UTC (1 hour ago):

TAF LIMF 171700Z 1718/1818 VRB05KT 9999 FEW050